Time;durP1;ratioP1;P1;durP2;ratioP2;P2;SDS_P1;SDS_P2;PMS_P1;PMS_P2;Temp;Humidity;BMP_temperature;BMP_pressure;BME280_temperature;BME280_humidity;BME280_pressure;Samples;Min_cycle;Max_cycle;Signal;HPM_P1;HPM_P2
2023/01/08 00:00:55;;;;;;;3.92;3.55;;;9.90;99.90;;;;;;5005341;28;20049;-38
2023/01/08 00:03:21;;;;;;;3.42;3.13;;;9.90;99.90;;;;;;5013326;28;20038;-37
2023/01/08 00:05:47;;;;;;;4.30;3.25;;;9.90;99.90;;;;;;5013060;28;20390;-36
2023/01/08 00:08:12;;;;;;;3.95;3.45;;;9.90;99.90;;;;;;5014062;28;20038;-38
2023/01/08 00:10:38;;;;;;;4.72;3.58;;;9.90;99.90;;;;;;5026099;28;20463;-38
2023/01/08 00:13:05;;;;;;;3.58;3.28;;;9.90;99.90;;;;;;5012927;28;20117;-37
2023/01/08 00:15:32;;;;;;;4.00;3.60;;;10.00;99.90;;;;;;5013088;28;20467;-36
2023/01/08 00:17:58;;;;;;;3.72;3.35;;;10.00;99.90;;;;;;5008046;28;20041;-37
2023/01/08 00:20:25;;;;;;;4.97;3.42;;;10.00;99.90;;;;;;5009927;28;20487;-38
2023/01/08 00:22:51;;;;;;;4.93;3.45;;;9.90;99.90;;;;;;5022908;28;20038;-37
2023/01/08 00:25:17;;;;;;;5.20;3.50;;;9.90;99.90;;;;;;5027554;28;20071;-38
2023/01/08 00:27:44;;;;;;;3.53;3.20;;;9.90;99.90;;;;;;5023465;28;20060;-38
2023/01/08 00:30:10;;;;;;;4.25;3.30;;;9.90;99.90;;;;;;5006025;28;20084;-37
2023/01/08 00:32:36;;;;;;;5.13;3.80;;;10.00;99.90;;;;;;5029154;28;20113;-38
2023/01/08 00:35:02;;;;;;;4.10;3.50;;;10.00;99.90;;;;;;5002803;28;20535;-38
2023/01/08 00:37:28;;;;;;;3.20;2.90;;;9.90;99.90;;;;;;5006504;28;20031;-38
2023/01/08 00:39:54;;;;;;;5.57;3.63;;;9.90;99.90;;;;;;5002948;28;20051;-37
2023/01/08 00:42:20;;;;;;;3.72;3.42;;;9.90;99.90;;;;;;5000819;28;20030;-37
2023/01/08 00:44:46;;;;;;;4.25;3.85;;;10.00;99.90;;;;;;5004217;28;20037;-37
2023/01/08 00:47:12;;;;;;;4.35;3.45;;;9.90;99.90;;;;;;5012393;28;20497;-38
2023/01/08 00:49:37;;;;;;;5.07;3.78;;;9.90;99.90;;;;;;5010384;28;20085;-38
2023/01/08 00:52:04;;;;;;;3.97;3.58;;;9.90;99.90;;;;;;5011648;28;20077;-38
2023/01/08 00:54:29;;;;;;;4.13;3.72;;;9.90;99.90;;;;;;5003748;28;20069;-38
2023/01/08 00:56:55;;;;;;;4.45;3.58;;;9.90;99.90;;;;;;5011685;28;20068;-38
2023/01/08 00:59:21;;;;;;;4.07;3.67;;;9.90;99.90;;;;;;5013470;28;20042;-38
2023/01/08 01:01:47;;;;;;;4.28;3.88;;;9.90;99.90;;;;;;5028825;28;20416;-38
2023/01/08 01:04:15;;;;;;;3.58;3.28;;;9.90;99.90;;;;;;5008770;28;20472;-38
2023/01/08 01:06:41;;;;;;;4.40;4.00;;;9.90;99.90;;;;;;5013240;28;20065;-38
2023/01/08 01:09:07;;;;;;;7.35;5.55;;;9.90;99.90;;;;;;5003433;28;20064;-38
2023/01/08 01:11:33;;;;;;;10.23;8.45;;;9.80;99.90;;;;;;5002867;28;20057;-38
2023/01/08 01:13:59;;;;;;;6.18;4.93;;;9.80;99.90;;;;;;5001427;28;20534;-38
2023/01/08 01:16:25;;;;;;;7.55;4.90;;;9.80;99.90;;;;;;5012407;28;20038;-38
2023/01/08 01:18:53;;;;;;;4.90;4.32;;;9.70;99.90;;;;;;5019764;28;20133;-38
2023/01/08 01:21:25;;;;;;;4.63;3.15;;;9.60;99.90;;;;;;5008566;28;20081;-38
2023/01/08 01:23:57;;;;;;;9.57;6.10;;;9.50;99.90;;;;;;5008666;28;20049;-40
2023/01/08 01:26:24;;;;;;;5.28;3.40;;;9.40;99.90;;;;;;5007144;28;20034;-39
2023/01/08 01:28:51;;;;;;;3.25;1.55;;;9.30;99.90;;;;;;5007256;28;20046;-38
2023/01/08 01:31:18;;;;;;;4.05;1.40;;;9.10;99.90;;;;;;5007674;28;20034;-38
2023/01/08 01:33:44;;;;;;;4.78;2.10;;;8.90;99.90;;;;;;5008556;28;20116;-38
2023/01/08 01:36:14;;;;;;;3.10;1.73;;;8.80;99.90;;;;;;5011882;28;20045;-38
2023/01/08 01:38:44;;;;;;;8.43;1.67;;;8.70;99.90;;;;;;5016474;28;20037;-41
2023/01/08 01:41:38;;;;;;;3.75;1.52;;;8.60;99.90;;;;;;5008633;28;20046;-39
2023/01/08 01:44:41;;;;;;;3.80;2.10;;;8.60;99.90;;;;;;5007295;28;20042;-38
2023/01/08 01:47:37;;;;;;;8.82;2.63;;;8.50;99.90;;;;;;5017097;28;20038;-39
2023/01/08 01:50:13;;;;;;;5.60;1.92;;;8.50;99.90;;;;;;5006432;28;20029;-39
2023/01/08 01:52:43;;;;;;;4.22;1.67;;;8.40;99.90;;;;;;5010206;28;20053;-39
2023/01/08 01:55:11;;;;;;;6.47;1.90;;;8.30;99.90;;;;;;5007589;28;20055;-38
2023/01/08 01:57:38;;;;;;;4.53;1.90;;;8.30;99.90;;;;;;5007660;28;20033;-39
2023/01/08 02:00:07;;;;;;;7.15;2.00;;;8.40;99.90;;;;;;5004537;28;20322;-39
2023/01/08 02:02:33;;;;;;;6.65;2.58;;;8.30;99.90;;;;;;5007402;28;20038;-38
2023/01/08 02:05:00;;;;;;;7.93;1.65;;;8.40;99.90;;;;;;5009402;28;20050;-38
2023/01/08 02:07:38;;;;;;;8.27;2.10;;;8.30;99.90;;;;;;5007144;28;20038;-38
2023/01/08 02:10:12;;;;;;;5.00;1.88;;;8.40;99.90;;;;;;5024473;28;20040;-40
2023/01/08 02:12:45;;;;;;;;;;;8.40;99.90;;;;;;5003360;28;20483;-41
2023/01/08 02:15:14;;;;;;;6.43;2.33;;;8.40;99.90;;;;;;5010623;28;20004;-38
2023/01/08 02:18:04;;;;;;;6.57;2.10;;;8.40;99.90;;;;;;5002035;28;20041;-38
2023/01/08 02:20:39;;;;;;;7.68;2.00;;;8.30;99.90;;;;;;5010265;28;20110;-38
2023/01/08 02:23:44;;;;;;;4.70;2.15;;;8.30;99.90;;;;;;5010789;28;20041;-38
2023/01/08 02:26:13;;;;;;;;;;;8.30;99.90;;;;;;4995435;28;20053;-40
2023/01/08 02:28:58;;;;;;;4.47;1.60;;;8.20;99.90;;;;;;5004133;28;19926;-38
2023/01/08 02:31:27;;;;;;;6.25;1.95;;;8.20;99.90;;;;;;5002563;28;20037;-39
2023/01/08 02:33:53;;;;;;;6.90;1.92;;;8.20;99.90;;;;;;5010727;28;20486;-38
2023/01/08 02:36:28;;;;;;;8.35;2.40;;;8.20;99.90;;;;;;5009428;28;20376;-38
2023/01/08 02:39:31;;;;;;;4.57;2.15;;;8.20;99.90;;;;;;5001658;28;20113;-38
2023/01/08 02:42:45;;;;;;;5.95;2.08;;;8.10;99.90;;;;;;5026723;28;20045;-39
2023/01/08 02:45:29;;;;;;;9.32;2.00;;;8.20;99.90;;;;;;4972492;28;20069;-39
2023/01/08 02:48:09;;;;;;;4.72;2.08;;;8.20;99.90;;;;;;4972209;28;20480;-38
2023/01/08 02:50:37;;;;;;;4.00;2.00;;;8.20;99.90;;;;;;4995819;28;20129;-39
2023/01/08 02:53:20;;;;;;;6.85;2.58;;;8.10;99.90;;;;;;5003509;28;20400;-38
2023/01/08 02:55:54;;;;;;;7.03;2.80;;;8.10;99.90;;;;;;5003315;28;20403;-38
2023/01/08 02:58:22;;;;;;;3.78;2.40;;;8.10;99.90;;;;;;5008308;28;20042;-38
2023/01/08 03:00:49;;;;;;;4.75;2.83;;;8.20;99.90;;;;;;5002764;28;20046;-38
2023/01/08 03:03:26;;;;;;;5.75;2.70;;;8.20;99.90;;;;;;5001651;28;20560;-38
2023/01/08 03:05:56;;;;;;;4.80;3.40;;;8.20;99.90;;;;;;5001073;28;20070;-38
2023/01/08 03:08:23;;;;;;;5.60;3.97;;;8.20;99.90;;;;;;5008705;28;20468;-39
2023/01/08 03:11:02;;;;;;;4.55;3.55;;;8.20;99.90;;;;;;4997133;28;20042;-39
2023/01/08 03:13:43;;;;;;;5.30;4.20;;;8.30;99.90;;;;;;5008023;28;20362;-38
2023/01/08 03:16:15;;;;;;;8.20;4.78;;;8.30;99.90;;;;;;5019864;28;20041;-38
2023/01/08 03:18:48;;;;;;;6.47;5.10;;;8.30;99.90;;;;;;5005339;28;20092;-38
2023/01/08 03:21:16;;;;;;;5.40;4.82;;;8.40;99.90;;;;;;4996007;28;20042;-39
2023/01/08 03:23:43;;;;;;;7.65;5.53;;;8.40;99.90;;;;;;5003716;28;20036;-38
2023/01/08 03:26:12;;;;;;;7.10;5.75;;;8.50;99.90;;;;;;5003418;28;20096;-38
2023/01/08 03:28:43;;;;;;;7.28;5.63;;;8.50;99.90;;;;;;5013960;28;20030;-38
2023/01/08 03:31:12;;;;;;;6.65;5.75;;;8.60;99.90;;;;;;5007752;28;20046;-38
2023/01/08 03:33:39;;;;;;;7.53;5.13;;;8.60;99.90;;;;;;5015066;28;20034;-38
2023/01/08 03:36:06;;;;;;;6.18;5.40;;;8.60;99.90;;;;;;5026438;28;20034;-38
2023/01/08 03:38:39;;;;;;;7.38;5.28;;;8.70;99.90;;;;;;5018881;28;20065;-39
2023/01/08 03:41:13;;;;;;;6.03;5.13;;;8.70;99.90;;;;;;5013267;28;20121;-38
2023/01/08 03:43:39;;;;;;;8.30;5.45;;;8.80;99.90;;;;;;5013648;28;20030;-39
2023/01/08 03:46:12;;;;;;;7.32;4.68;;;8.80;99.90;;;;;;5012539;28;20030;-39
2023/01/08 03:48:40;;;;;;;6.57;4.30;;;8.80;99.90;;;;;;5002606;28;20037;-39
2023/01/08 03:51:09;;;;;;;8.02;4.80;;;8.80;99.90;;;;;;5020182;28;20483;-38
2023/01/08 03:53:35;;;;;;;5.40;4.07;;;8.80;99.90;;;;;;5008080;28;20518;-38
2023/01/08 03:56:01;;;;;;;6.68;4.22;;;8.80;99.90;;;;;;5009918;28;20037;-38
2023/01/08 03:58:27;;;;;;;5.72;3.72;;;8.80;99.90;;;;;;5010764;28;20364;-38
2023/01/08 04:00:53;;;;;;;6.25;3.80;;;8.80;99.90;;;;;;5006558;28;20049;-38
2023/01/08 04:03:19;;;;;;;5.85;3.90;;;8.80;99.90;;;;;;5021990;28;20033;-39
2023/01/08 04:05:44;;;;;;;6.55;3.90;;;8.80;99.90;;;;;;5006542;28;20037;-39
2023/01/08 04:08:10;;;;;;;6.68;3.70;;;8.80;99.90;;;;;;5020011;28;20037;-39
2023/01/08 04:10:36;;;;;;;7.57;3.50;;;8.80;99.90;;;;;;5013436;28;20091;-40
2023/01/08 04:13:02;;;;;;;6.47;3.10;;;8.80;99.90;;;;;;5018406;28;20099;-39
2023/01/08 04:15:28;;;;;;;5.40;3.00;;;8.70;99.90;;;;;;5012061;28;20495;-39
2023/01/08 04:17:53;;;;;;;4.40;3.08;;;8.70;99.90;;;;;;5011439;28;20042;-39
2023/01/08 04:20:19;;;;;;;6.13;2.95;;;8.70;99.90;;;;;;5003747;28;20042;-39
2023/01/08 04:22:45;;;;;;;4.03;2.72;;;8.70;99.90;;;;;;4990590;28;20041;-40
2023/01/08 04:25:11;;;;;;;4.28;2.50;;;8.60;99.90;;;;;;5025067;28;20042;-38
2023/01/08 04:27:37;;;;;;;4.63;3.30;;;8.60;99.90;;;;;;5011274;28;20037;-38
2023/01/08 04:30:03;;;;;;;4.78;3.75;;;8.50;99.90;;;;;;5029800;28;20392;-38
2023/01/08 04:32:29;;;;;;;4.80;2.88;;;8.50;99.90;;;;;;5013179;28;20099;-37
2023/01/08 04:34:55;;;;;;;2.67;2.17;;;8.50;99.90;;;;;;5013174;28;20485;-37
2023/01/08 04:37:20;;;;;;;4.50;2.20;;;8.50;99.90;;;;;;4996690;28;20087;-38
2023/01/08 04:39:46;;;;;;;4.25;2.20;;;8.50;99.90;;;;;;5012900;28;20476;-38
2023/01/08 04:42:12;;;;;;;4.70;2.33;;;8.40;99.90;;;;;;5012868;28;20052;-37
2023/01/08 04:44:37;;;;;;;5.25;2.50;;;8.40;99.90;;;;;;5013030;28;20444;-37
2023/01/08 04:47:03;;;;;;;3.50;2.40;;;8.40;99.90;;;;;;5012697;28;20088;-37
2023/01/08 04:49:29;;;;;;;5.40;2.58;;;8.40;99.90;;;;;;5012953;28;20046;-38
2023/01/08 04:51:55;;;;;;;5.72;2.97;;;8.40;99.90;;;;;;5012866;28;20041;-38
2023/01/08 04:54:20;;;;;;;5.70;3.20;;;8.40;99.90;;;;;;5012792;28;20387;-38
2023/01/08 04:56:51;;;;;;;4.65;2.70;;;8.40;99.90;;;;;;5012505;28;20042;-37
2023/01/08 04:59:17;;;;;;;4.13;2.90;;;8.40;99.90;;;;;;5012696;28;20053;-37
2023/01/08 05:01:43;;;;;;;4.43;3.30;;;8.40;99.90;;;;;;5012254;28;20038;-37
2023/01/08 05:04:10;;;;;;;4.47;3.17;;;8.40;99.90;;;;;;5012639;28;20037;-37
2023/01/08 05:06:36;;;;;;;4.13;3.55;;;8.40;99.90;;;;;;5012301;28;20038;-37
2023/01/08 05:09:02;;;;;;;9.52;4.15;;;8.40;99.90;;;;;;5012172;28;20128;-37
2023/01/08 05:11:28;;;;;;;5.22;4.70;;;8.40;99.90;;;;;;5012170;28;20042;-37
2023/01/08 05:13:54;;;;;;;4.63;4.10;;;8.40;99.90;;;;;;5012312;28;20038;-38
2023/01/08 05:16:20;;;;;;;6.65;4.45;;;8.40;99.90;;;;;;5012183;28;20400;-37
2023/01/08 05:18:46;;;;;;;8.18;4.65;;;8.40;99.90;;;;;;5012396;28;20042;-37
2023/01/08 05:21:12;;;;;;;7.50;4.97;;;8.40;99.90;;;;;;5012064;28;20372;-38
2023/01/08 05:23:38;;;;;;;8.60;5.00;;;8.40;99.90;;;;;;5012872;28;20045;-42
2023/01/08 05:26:06;;;;;;;9.25;5.05;;;8.40;99.90;;;;;;5012258;28;20030;-41
2023/01/08 05:28:32;;;;;;;6.07;4.60;;;8.40;99.90;;;;;;5010527;28;20036;-41
2023/01/08 05:30:58;;;;;;;7.50;4.32;;;8.40;99.90;;;;;;5004331;28;20523;-42
2023/01/08 05:33:24;;;;;;;7.88;3.92;;;8.30;99.90;;;;;;5002678;28;20454;-41
2023/01/08 05:35:50;;;;;;;6.68;3.70;;;8.30;99.90;;;;;;5008130;28;20046;-41
2023/01/08 05:38:16;;;;;;;5.50;3.08;;;8.30;99.90;;;;;;5007512;28;20040;-41
2023/01/08 05:40:41;;;;;;;5.40;3.78;;;8.30;99.90;;;;;;5013121;28;20508;-42
2023/01/08 05:43:07;;;;;;;4.40;3.08;;;8.20;99.90;;;;;;5009980;28;20033;-42
2023/01/08 05:45:33;;;;;;;4.70;2.45;;;8.20;99.90;;;;;;5005680;28;20101;-42
2023/01/08 05:48:03;;;;;;;7.53;2.78;;;8.20;99.90;;;;;;5011397;28;20038;-42
2023/01/08 05:50:28;;;;;;;6.00;2.90;;;8.10;99.90;;;;;;5009641;28;20037;-41
2023/01/08 05:52:54;;;;;;;7.32;2.30;;;8.10;99.90;;;;;;5013536;28;20450;-43
2023/01/08 05:55:20;;;;;;;9.38;2.40;;;8.10;99.90;;;;;;5000056;28;20041;-41
2023/01/08 05:57:46;;;;;;;6.18;2.08;;;8.10;99.90;;;;;;5006691;28;20399;-41
2023/01/08 06:00:12;;;;;;;5.50;2.28;;;8.10;99.90;;;;;;5000163;28;20134;-42
2023/01/08 06:02:38;;;;;;;4.82;2.30;;;8.00;99.90;;;;;;5002238;28;20045;-41
2023/01/08 06:05:04;;;;;;;4.97;1.70;;;8.00;99.90;;;;;;5016653;28;20029;-41
2023/01/08 06:07:30;;;;;;;4.55;1.60;;;8.00;99.90;;;;;;5008596;28;20125;-41
2023/01/08 06:09:55;;;;;;;8.38;1.80;;;8.00;99.90;;;;;;5006451;28;20172;-42
2023/01/08 06:12:21;;;;;;;3.40;1.92;;;7.90;99.90;;;;;;5002691;28;20073;-41
2023/01/08 06:14:47;;;;;;;3.33;1.98;;;7.90;99.90;;;;;;5000540;28;20030;-41
2023/01/08 06:17:15;;;;;;;7.38;2.00;;;7.90;99.90;;;;;;5015943;28;20057;-40
2023/01/08 06:19:41;;;;;;;5.00;1.80;;;7.90;99.90;;;;;;5007946;28;20041;-41
2023/01/08 06:22:06;;;;;;;4.40;2.00;;;7.90;99.90;;;;;;5004642;28;20103;-41
2023/01/08 06:24:32;;;;;;;6.85;1.75;;;7.90;99.90;;;;;;4998063;28;20029;-40
2023/01/08 06:26:58;;;;;;;3.50;1.98;;;7.90;99.90;;;;;;5007992;28;20483;-40
2023/01/08 06:29:24;;;;;;;5.93;2.08;;;7.90;99.90;;;;;;5007692;28;20056;-40
2023/01/08 06:31:49;;;;;;;6.80;2.13;;;7.80;99.90;;;;;;4986052;28;20522;-41
2023/01/08 06:34:15;;;;;;;4.60;1.70;;;7.80;99.90;;;;;;5003055;28;20041;-40
2023/01/08 06:36:41;;;;;;;4.18;1.83;;;7.80;99.90;;;;;;5007526;28;20034;-40
2023/01/08 06:39:07;;;;;;;4.88;1.70;;;7.80;99.90;;;;;;5004582;28;20067;-41
2023/01/08 06:41:33;;;;;;;4.82;1.92;;;7.80;99.90;;;;;;5013251;28;20076;-40
2023/01/08 06:43:59;;;;;;;3.70;1.42;;;7.80;99.90;;;;;;5015006;28;20033;-40
2023/01/08 06:46:25;;;;;;;4.40;1.73;;;7.80;99.90;;;;;;5012391;28;20053;-41
2023/01/08 06:48:51;;;;;;;5.28;1.75;;;7.80;99.90;;;;;;5009183;28;20443;-40
2023/01/08 06:51:16;;;;;;;3.30;1.70;;;7.80;99.90;;;;;;5008247;28;20030;-40
2023/01/08 06:53:42;;;;;;;5.25;1.70;;;7.80;99.90;;;;;;5018215;28;20118;-41
2023/01/08 06:56:09;;;;;;;4.72;2.03;;;7.80;99.90;;;;;;5013148;28;20040;-40
2023/01/08 06:58:37;;;;;;;3.75;1.55;;;7.80;99.90;;;;;;5020309;28;20037;-40
2023/01/08 07:01:03;;;;;;;5.70;1.77;;;7.80;99.90;;;;;;5006496;28;20476;-40
2023/01/08 07:03:29;;;;;;;7.05;2.28;;;7.80;99.90;;;;;;5013625;28;20029;-40
2023/01/08 07:05:55;;;;;;;5.70;2.10;;;7.80;99.90;;;;;;5011216;28;20602;-40
2023/01/08 07:08:21;;;;;;;5.20;1.80;;;7.80;99.90;;;;;;5004418;28;20114;-40
2023/01/08 07:10:47;;;;;;;7.00;1.70;;;7.80;99.90;;;;;;5002633;28;20042;-40
2023/01/08 07:13:13;;;;;;;5.25;1.88;;;7.80;99.90;;;;;;4998996;28;20534;-41
2023/01/08 07:15:40;;;;;;;4.03;1.98;;;7.80;99.90;;;;;;5015046;28;20056;-41
2023/01/08 07:18:10;;;;;;;3.28;1.88;;;7.80;99.90;;;;;;5014129;28;20053;-40
2023/01/08 07:20:36;;;;;;;2.78;1.88;;;7.80;99.90;;;;;;5015929;28;20044;-41
2023/01/08 07:23:07;;;;;;;5.38;2.10;;;7.80;99.90;;;;;;5013042;28;20042;-40
2023/01/08 07:25:33;;;;;;;7.07;2.60;;;7.80;99.90;;;;;;5026953;28;20076;-40
2023/01/08 07:28:00;;;;;;;5.50;2.38;;;7.80;99.90;;;;;;5006255;28;20123;-40
2023/01/08 07:30:26;;;;;;;6.47;2.20;;;7.80;99.90;;;;;;5006661;28;20045;-40
2023/01/08 07:32:52;;;;;;;7.28;2.33;;;7.80;99.90;;;;;;5000135;28;20038;-41
2023/01/08 07:35:18;;;;;;;9.60;2.90;;;7.70;99.90;;;;;;5002535;28;20391;-40
2023/01/08 07:37:44;;;;;;;5.93;2.35;;;7.70;99.90;;;;;;5007575;28;20045;-40
2023/01/08 07:40:11;;;;;;;8.80;3.00;;;7.60;99.90;;;;;;5007775;28;20105;-41
2023/01/08 07:42:37;;;;;;;7.57;3.28;;;7.60;99.90;;;;;;5013566;28;20120;-40
2023/01/08 07:45:04;;;;;;;4.20;2.45;;;7.60;99.90;;;;;;5007826;28;20049;-40
2023/01/08 07:47:30;;;;;;;6.82;2.70;;;7.50;99.90;;;;;;5011489;28;20116;-40
2023/01/08 07:49:55;;;;;;;5.68;2.17;;;7.50;99.90;;;;;;5015457;28;20139;-40
2023/01/08 07:52:21;;;;;;;4.45;2.60;;;7.50;99.90;;;;;;5016769;28;20044;-39
2023/01/08 07:54:47;;;;;;;7.55;2.67;;;7.50;99.90;;;;;;5001048;28;20045;-40
2023/01/08 07:57:13;;;;;;;6.28;3.13;;;7.40;99.90;;;;;;5018328;28;20038;-40
2023/01/08 07:59:38;;;;;;;5.38;2.50;;;7.40;99.90;;;;;;5015397;28;20050;-40
2023/01/08 08:02:04;;;;;;;7.47;2.67;;;7.30;99.90;;;;;;5016621;28;20487;-40
2023/01/08 08:04:30;;;;;;;5.80;1.88;;;7.30;99.90;;;;;;5015989;28;20038;-40
2023/01/08 08:06:56;;;;;;;3.83;2.33;;;7.30;99.90;;;;;;5013976;28;20061;-40
2023/01/08 08:09:21;;;;;;;6.45;2.47;;;7.20;99.90;;;;;;5017681;28;20068;-40
2023/01/08 08:11:47;;;;;;;4.05;2.15;;;7.20;99.90;;;;;;5009447;28;20488;-40
2023/01/08 08:14:13;;;;;;;4.57;2.20;;;7.20;99.90;;;;;;5020985;28;20454;-40
2023/01/08 08:16:39;;;;;;;3.67;2.00;;;7.20;99.90;;;;;;5008543;28;20045;-40
2023/01/08 08:19:05;;;;;;;4.45;2.30;;;7.10;99.90;;;;;;5011384;28;20072;-39
2023/01/08 08:21:31;;;;;;;4.47;2.20;;;7.10;99.90;;;;;;5008521;28;20054;-40
2023/01/08 08:23:57;;;;;;;6.15;2.72;;;7.00;99.90;;;;;;5011865;28;20117;-40
2023/01/08 08:26:23;;;;;;;4.70;2.58;;;7.10;99.90;;;;;;5014118;28;20034;-39
2023/01/08 08:28:49;;;;;;;4.38;2.72;;;7.10;99.90;;;;;;5009618;28;20095;-39
2023/01/08 08:31:15;;;;;;;5.78;2.70;;;7.00;99.90;;;;;;5011791;28;20450;-40
2023/01/08 08:33:41;;;;;;;4.60;2.45;;;7.00;99.90;;;;;;5012705;28;20113;-40
2023/01/08 08:36:07;;;;;;;4.13;2.72;;;7.10;99.90;;;;;;5026394;28;20061;-39
2023/01/08 08:38:33;;;;;;;4.30;2.05;;;7.10;99.90;;;;;;5007098;28;20045;-39
2023/01/08 08:40:59;;;;;;;5.13;2.25;;;7.10;99.90;;;;;;5016232;28;20050;-40
2023/01/08 08:43:24;;;;;;;5.22;2.00;;;7.20;99.90;;;;;;5014196;28;20026;-39
2023/01/08 08:45:50;;;;;;;4.22;2.40;;;7.20;99.90;;;;;;4989008;28;20042;-39
2023/01/08 08:48:16;;;;;;;4.15;2.17;;;7.20;99.90;;;;;;5007165;28;20089;-40
2023/01/08 08:50:42;;;;;;;3.25;2.45;;;7.20;99.90;;;;;;5007243;28;20041;-39
2023/01/08 08:53:09;;;;;;;5.57;2.63;;;7.20;99.90;;;;;;4998625;28;20054;-40
2023/01/08 08:55:35;;;;;;;3.22;2.47;;;7.20;99.90;;;;;;5007979;28;20041;-40
2023/01/08 08:58:12;;;;;;;4.43;2.38;;;7.20;99.90;;;;;;5006504;28;20132;-39
2023/01/08 09:00:39;;;;;;;4.95;2.50;;;7.20;99.90;;;;;;5012331;28;20049;-40
2023/01/08 09:03:05;;;;;;;4.07;1.83;;;7.20;99.90;;;;;;5007377;28;20042;-39
2023/01/08 09:05:34;;;;;;;2.65;2.03;;;7.20;99.90;;;;;;5009270;28;20436;-40
2023/01/08 09:08:00;;;;;;;6.78;3.03;;;7.20;99.90;;;;;;5008371;28;20513;-40
2023/01/08 09:10:26;;;;;;;2.70;2.40;;;7.20;99.90;;;;;;4997649;28;20130;-39
2023/01/08 09:12:52;;;;;;;5.72;3.33;;;7.30;99.90;;;;;;5007754;28;20038;-40
2023/01/08 09:15:18;;;;;;;5.80;2.65;;;7.30;99.90;;;;;;5007932;28;20088;-39
2023/01/08 09:17:44;;;;;;;4.53;2.40;;;7.30;99.90;;;;;;5002378;28;20041;-40
2023/01/08 09:20:10;;;;;;;4.47;2.58;;;7.30;99.90;;;;;;5012806;28;20045;-39
2023/01/08 09:22:36;;;;;;;4.07;3.08;;;7.30;99.90;;;;;;5010284;28;20078;-40
2023/01/08 09:25:01;;;;;;;10.77;7.70;;;7.50;99.90;;;;;;5011402;28;20062;-39
2023/01/08 09:27:27;;;;;;;8.77;3.83;;;7.70;99.90;;;;;;5004175;28;20124;-40
2023/01/08 09:29:53;;;;;;;5.95;3.22;;;7.90;99.90;;;;;;5008093;28;20048;-38
2023/01/08 09:32:19;;;;;;;8.73;3.45;;;8.10;99.90;;;;;;4993084;28;20033;-38
2023/01/08 09:34:44;;;;;;;6.25;3.50;;;8.40;99.90;;;;;;5009679;28;20046;-38
2023/01/08 09:37:10;;;;;;;7.53;4.07;;;8.60;99.90;;;;;;5012244;28;20038;-38
2023/01/08 09:39:36;;;;;;;4.95;3.63;;;8.90;99.90;;;;;;5009404;28;20033;-38
2023/01/08 09:42:04;;;;;;;6.90;3.08;;;9.20;99.90;;;;;;5008563;28;20041;-38
2023/01/08 09:44:41;;;;;;;5.32;2.65;;;9.60;99.90;;;;;;5007959;28;20114;-38
2023/01/08 09:47:19;;;;;;;8.88;4.10;;;9.90;99.90;;;;;;5008773;28;20044;-38
2023/01/08 09:49:46;;;;;;;7.43;2.92;;;10.40;99.90;;;;;;5008449;28;20102;-39
2023/01/08 09:52:13;;;;;;;6.32;2.95;;;10.80;99.90;;;;;;5011889;28;20553;-39
2023/01/08 09:54:40;;;;;;;9.32;4.00;;;11.00;99.90;;;;;;5007804;28;20069;-39
2023/01/08 09:57:15;;;;;;;8.02;4.38;;;11.20;99.90;;;;;;5015157;28;20049;-39
2023/01/08 09:59:41;;;;;;;4.47;2.63;;;11.50;99.90;;;;;;5001047;28;20476;-39
2023/01/08 10:02:22;;;;;;;5.38;2.78;;;11.70;99.90;;;;;;5005589;28;20491;-39
2023/01/08 10:04:59;;;;;;;5.72;3.25;;;11.70;99.90;;;;;;4999318;28;20117;-39
2023/01/08 10:07:27;;;;;;;6.03;2.63;;;12.00;99.90;;;;;;5016527;28;20039;-39
2023/01/08 10:09:54;;;;;;;8.07;3.53;;;12.10;99.90;;;;;;5001985;28;20557;-39
2023/01/08 10:12:27;;;;;;;7.32;2.92;;;12.40;99.90;;;;;;5000650;28;20065;-39
2023/01/08 10:14:57;;;;;;;8.95;2.95;;;12.40;99.90;;;;;;4998401;28;20404;-39
2023/01/08 10:17:38;;;;;;;8.98;3.38;;;12.40;99.90;;;;;;5009773;28;20034;-39
2023/01/08 10:20:19;;;;;;;8.43;2.38;;;12.70;99.90;;;;;;5009194;28;20103;-39
2023/01/08 10:22:49;;;;;;;10.73;3.38;;;12.50;99.90;;;;;;5005573;28;20561;-39
2023/01/08 10:25:18;;;;;;;6.53;2.35;;;12.30;99.90;;;;;;5000738;28;20034;-39
2023/01/08 10:27:56;;;;;;;5.72;2.20;;;11.80;99.90;;;;;;5009766;28;20037;-39
2023/01/08 10:30:42;;;;;;;7.05;2.92;;;11.50;99.90;;;;;;5025197;28;20064;-39
2023/01/08 10:33:37;;;;;;;6.95;3.00;;;11.20;99.90;;;;;;5005500;28;20042;-39
2023/01/08 10:36:07;;;;;;;6.72;2.00;;;11.00;99.90;;;;;;5012136;28;20089;-39
2023/01/08 10:38:37;;;;;;;13.27;7.88;;;10.80;99.90;;;;;;5001650;28;20038;-39
2023/01/08 10:41:05;;;;;;;9.43;2.38;;;10.80;99.90;;;;;;5003824;28;20503;-39
2023/01/08 10:43:36;;;;;;;5.72;2.60;;;10.60;99.90;;;;;;5007940;28;20030;-39
2023/01/08 10:46:23;;;;;;;7.80;2.65;;;10.50;99.90;;;;;;5010286;28;20042;-39
2023/01/08 10:48:59;;;;;;;9.10;2.30;;;10.40;99.90;;;;;;5022356;28;20064;-39
2023/01/08 10:51:27;;;;;;;8.23;2.42;;;10.60;99.90;;;;;;5004937;28;20169;-39
2023/01/08 10:53:55;;;;;;;8.60;3.20;;;10.70;99.90;;;;;;5008666;28;20045;-39
2023/01/08 10:56:26;;;;;;;9.30;3.80;;;11.30;99.90;;;;;;5007376;28;20081;-39
2023/01/08 10:58:52;;;;;;;6.43;3.50;;;12.00;99.90;;;;;;5019492;28;20046;-39
2023/01/08 11:01:21;;;;;;;8.00;2.70;;;12.40;99.90;;;;;;5009198;28;20583;-40
2023/01/08 11:04:04;;;;;;;5.72;2.17;;;12.70;99.90;;;;;;5010722;28;20034;-40
2023/01/08 11:06:41;;;;;;;8.97;2.40;;;12.90;99.90;;;;;;5006806;28;20052;-39
2023/01/08 11:09:38;;;;;;;8.25;3.47;;;12.80;99.90;;;;;;5018550;28;20387;-39
2023/01/08 11:12:04;;;;;;;11.45;3.25;;;13.00;99.90;;;;;;5008064;28;20045;-39
2023/01/08 11:14:34;;;;;;;8.30;2.38;;;13.40;99.90;;;;;;5005084;28;20403;-39
2023/01/08 11:17:01;;;;;;;4.10;1.80;;;13.70;99.90;;;;;;5007252;28;20063;-44
2023/01/08 11:19:34;;;;;;;6.45;2.50;;;13.90;99.90;;;;;;5009997;28;20034;-44
2023/01/08 11:22:07;;;;;;;7.30;1.85;;;14.40;99.90;;;;;;5007417;28;20054;-44
2023/01/08 11:24:37;;;;;;;7.18;2.35;;;14.90;99.90;;;;;;5002630;28;20038;-44
2023/01/08 11:27:17;;;;;;;8.48;3.22;;;15.20;99.90;;;;;;5002948;28;20072;-42
2023/01/08 11:29:58;;;;;;;7.10;2.35;;;14.90;99.90;;;;;;5003060;28;20030;-45
2023/01/08 11:32:28;;;;;;;6.72;2.53;;;14.30;99.90;;;;;;5013351;28;20373;-43
2023/01/08 11:35:17;;;;;;;6.30;2.60;;;14.20;99.90;;;;;;5017184;28;20042;-45
2023/01/08 11:38:05;;;;;;;12.27;5.25;;;14.10;99.90;;;;;;5009530;28;20038;-43
2023/01/08 11:40:49;;;;;;;7.38;2.75;;;14.40;99.90;;;;;;5012072;28;20041;-42
2023/01/08 11:43:24;;;;;;;5.97;2.38;;;14.30;99.90;;;;;;5014267;28;20112;-43
2023/01/08 11:46:09;;;;;;;10.98;4.90;;;13.60;99.90;;;;;;5012919;28;20124;-42
2023/01/08 11:48:53;;;;;;;9.02;4.00;;;13.10;99.90;;;;;;5007306;28;20056;-43
2023/01/08 11:52:07;;;;;;;6.72;2.70;;;13.10;99.90;;;;;;5005339;28;20400;-41
2023/01/08 11:54:56;;;;;;;6.90;2.78;;;13.20;99.90;;;;;;4975524;28;20045;-43
2023/01/08 11:57:43;;;;;;;6.57;2.33;;;12.80;99.90;;;;;;5008364;28;20165;-42
2023/01/08 12:00:46;;;;;;;6.88;2.47;;;12.80;99.90;;;;;;5022343;28;20141;-42
2023/01/08 12:03:57;;;;;;;4.43;2.60;;;12.80;99.90;;;;;;5028438;28;20041;-42
2023/01/08 12:06:43;;;;;;;7.75;2.55;;;12.30;99.90;;;;;;5007154;28;20084;-44
2023/01/08 12:09:21;;;;;;;8.00;2.28;;;12.10;99.90;;;;;;5020046;28;20038;-44
2023/01/08 12:12:01;;;;;;;8.23;2.35;;;12.00;99.90;;;;;;5002148;28;20101;-43
2023/01/08 12:14:33;;;;;;;9.50;2.58;;;12.20;99.90;;;;;;5022101;28;20076;-42
2023/01/08 12:17:29;;;;;;;8.00;2.30;;;12.50;99.90;;;;;;5027318;28;20048;-42
2023/01/08 12:20:07;;;;;;;7.05;2.05;;;12.90;99.90;;;;;;5006177;28;20061;-42
2023/01/08 12:22:37;;;;;;;5.72;1.88;;;12.90;99.90;;;;;;5035115;28;20045;-43
2023/01/08 12:25:28;;;;;;;12.00;4.95;;;12.60;99.90;;;;;;5013362;28;20077;-43
2023/01/08 12:28:20;;;;;;;9.52;3.50;;;12.20;99.90;;;;;;5028468;28;20045;-41
2023/01/08 12:31:11;;;;;;;6.55;2.67;;;11.90;99.90;;;;;;5028283;28;20042;-43
2023/01/08 12:33:47;;;;;;;9.15;4.90;;;11.60;99.90;;;;;;4987339;28;20057;-44
2023/01/08 12:36:43;;;;;;;5.72;3.15;;;11.40;99.90;;;;;;5020869;28;20109;-41
2023/01/08 12:39:14;;;;;;;9.57;3.20;;;11.30;99.90;;;;;;5007609;28;20041;-44
2023/01/08 12:41:43;;;;;;;10.35;4.25;;;11.30;99.90;;;;;;5019384;28;20448;-43
2023/01/08 12:44:10;;;;;;;6.47;3.00;;;11.20;99.90;;;;;;5009783;28;20104;-42
2023/01/08 12:46:41;;;;;;;10.88;4.30;;;11.20;99.90;;;;;;5012153;28;20033;-41
2023/01/08 12:49:13;;;;;;;4.88;2.10;;;11.40;99.90;;;;;;5007819;28;20524;-46
2023/01/08 12:51:55;;;;;;;7.80;3.03;;;11.90;99.90;;;;;;5017415;28;20033;-44
2023/01/08 12:54:47;;;;;;;6.28;2.67;;;12.80;99.90;;;;;;5009115;28;20088;-42
2023/01/08 12:57:18;;;;;;;3.78;2.50;;;13.60;99.90;;;;;;5024190;28;20488;-42
2023/01/08 13:00:01;;;;;;;6.30;2.50;;;14.20;99.90;;;;;;5018450;28;20514;-44
2023/01/08 13:02:51;;;;;;;5.38;2.10;;;15.00;99.90;;;;;;5012841;28;20404;-44
2023/01/08 13:05:17;;;;;;;9.70;6.20;;;15.00;99.90;;;;;;5015339;28;20191;-43
2023/01/08 13:07:45;;;;;;;9.23;6.63;;;14.80;99.90;;;;;;5005373;28;20030;-44
2023/01/08 13:10:30;;;;;;;8.55;3.92;;;14.50;99.90;;;;;;4999853;28;20496;-42
2023/01/08 13:12:57;;;;;;;6.43;2.60;;;13.90;99.90;;;;;;5011299;28;20038;-42